createdAt,value
2022-08-05T00:00:56.010Z,100730.03
2022-08-05T00:03:42.346Z,100732.03
2022-08-05T00:06:29.243Z,100727.19
2022-08-05T00:08:55.470Z,100724.16
2022-08-05T00:11:34.432Z,100725.00
2022-08-05T00:14:02.167Z,100728.31
2022-08-05T00:16:35.584Z,100727.97
2022-08-05T00:19:04.034Z,100727.50
2022-08-05T00:21:31.434Z,100730.34
2022-08-05T00:24:09.846Z,100730.31
2022-08-05T00:26:37.640Z,100726.69
2022-08-05T00:29:05.055Z,100728.78
2022-08-05T00:31:53.458Z,100722.06
2022-08-05T00:34:54.150Z,100727.97
2022-08-05T00:37:12.567Z,100728.00
2022-08-05T00:39:44.272Z,100723.22
2022-08-05T00:42:31.956Z,100732.75
2022-08-05T00:44:58.843Z,100727.97
2022-08-05T00:47:25.923Z,100725.91
2022-08-05T00:49:52.398Z,100725.25
2022-08-05T00:52:28.562Z,100722.72
2022-08-05T00:54:56.336Z,100719.28
2022-08-05T00:57:25.196Z,100718.91
2022-08-05T00:59:59.088Z,100716.19
2022-08-05T01:02:25.567Z,100715.00
2022-08-05T01:04:52.058Z,100713.06
2022-08-05T01:07:18.541Z,100712.25
2022-08-05T01:09:45.943Z,100710.47
2022-08-05T01:12:22.153Z,100709.09
2022-08-05T01:14:48.633Z,100710.66
2022-08-05T01:17:16.055Z,100703.91
2022-08-05T01:20:01.788Z,100704.72
2022-08-05T01:22:29.651Z,100703.19
2022-08-05T01:24:58.404Z,100703.47
2022-08-05T01:27:25.211Z,100705.16
2022-08-05T01:29:52.692Z,100695.53
2022-08-05T01:32:21.165Z,100698.44
2022-08-05T01:34:47.657Z,100691.69
2022-08-05T01:37:24.523Z,100694.44
2022-08-05T01:39:52.767Z,100695.53
2022-08-05T01:42:21.614Z,100692.75
2022-08-05T01:44:54.234Z,100689.53
2022-08-05T01:47:21.473Z,100695.63
2022-08-05T01:50:01.312Z,100698.50
2022-08-05T01:52:29.218Z,100696.16
2022-08-05T01:54:57.780Z,100699.31
2022-08-05T01:58:10.721Z,100701.03
2022-08-05T02:00:12.627Z,100694.25
2022-08-05T02:02:39.128Z,100682.72
2022-08-05T02:05:17.788Z,100691.09
2022-08-05T02:08:00.134Z,100675.16
2022-08-05T02:10:28.659Z,100675.88
2022-08-05T02:12:55.297Z,100681.41
2022-08-05T02:15:21.810Z,100682.59
2022-08-05T02:18:28.357Z,100675.06
2022-08-05T02:20:39.069Z,100678.31
2022-08-05T02:23:05.731Z,100666.78
2022-08-05T02:25:49.184Z,100675.16
2022-08-05T02:28:16.969Z,100671.19
2022-08-05T02:30:56.679Z,100675.56
2022-08-05T02:33:36.133Z,100667.59
2022-08-05T02:36:04.773Z,100667.97
2022-08-05T02:38:35.000Z,100666.44
2022-08-05T02:41:14.611Z,100659.69
2022-08-05T02:44:06.886Z,100665.63
2022-08-05T02:46:30.448Z,100661.31
2022-08-05T02:48:57.948Z,100666.94
2022-08-05T02:51:28.530Z,100657.06
2022-08-05T02:54:11.834Z,100659.34
2022-08-05T02:56:58.320Z,100660.25
2022-08-05T02:59:27.102Z,100649.44
2022-08-05T03:01:54.369Z,100641.94
2022-08-05T03:04:20.880Z,100643.94
2022-08-05T03:06:56.305Z,100649.13
2022-08-05T03:09:36.315Z,100646.34
2022-08-05T03:12:05.272Z,100642.31
2022-08-05T03:14:31.810Z,100641.97
2022-08-05T03:16:59.177Z,100646.69
2022-08-05T03:19:34.513Z,100645.91
2022-08-05T03:22:03.166Z,100648.38
2022-08-05T03:24:31.667Z,100655.06
2022-08-05T03:27:00.197Z,100641.59
2022-08-05T03:29:45.705Z,100648.81
2022-08-05T03:32:14.373Z,100641.94
2022-08-05T03:34:41.065Z,100641.97
2022-08-05T03:37:07.696Z,100642.78
2022-08-05T03:39:38.136Z,100639.59
2022-08-05T03:42:14.883Z,100644.31
2022-08-05T03:44:42.522Z,100639.84
2022-08-05T03:47:09.928Z,100638.56
2022-08-05T03:49:51.449Z,100645.25
2022-08-05T03:52:37.149Z,100641.31
2022-08-05T03:56:04.638Z,100637.78
2022-08-05T03:57:54.776Z,100638.97
2022-08-05T04:00:21.265Z,100639.34
2022-08-05T04:02:58.077Z,100640.44
2022-08-05T04:05:27.963Z,100637.31
2022-08-05T04:08:00.845Z,100634.84
2022-08-05T04:10:27.666Z,100638.84
2022-08-05T04:12:54.707Z,100634.31
2022-08-05T04:15:21.375Z,100636.78
2022-08-05T04:17:56.207Z,100639.56
2022-08-05T04:20:24.024Z,100655.88
2022-08-05T04:22:51.456Z,100638.31
2022-08-05T04:25:18.873Z,100641.47
2022-08-05T04:27:57.298Z,100638.91
2022-08-05T04:30:26.636Z,100642.75
2022-08-05T04:32:53.189Z,100638.69
2022-08-05T04:35:20.654Z,100641.00
2022-08-05T04:38:02.272Z,100642.16
2022-08-05T04:40:33.978Z,100639.00
2022-08-05T04:43:00.471Z,100639.78
2022-08-05T04:45:47.956Z,100633.78
2022-08-05T04:48:16.580Z,100639.94
2022-08-05T04:51:03.021Z,100632.34
2022-08-05T04:53:33.695Z,100631.19
2022-08-05T04:56:33.214Z,100638.84
2022-08-05T04:58:49.455Z,100636.53
2022-08-05T05:02:06.090Z,100637.69
2022-08-05T05:04:04.579Z,100631.66
2022-08-05T05:06:38.686Z,100638.44
2022-08-05T05:09:17.140Z,100641.66
2022-08-05T05:11:53.155Z,100650.03
2022-08-05T05:14:31.247Z,100647.47
2022-08-05T05:16:59.551Z,100649.44
2022-08-05T05:19:36.366Z,100645.03
2022-08-05T05:22:23.965Z,100641.00
2022-08-05T05:24:57.302Z,100655.84
2022-08-05T05:27:45.767Z,100659.00
2022-08-05T05:30:15.567Z,100662.16
2022-08-05T05:33:00.759Z,100668.38
2022-08-05T05:35:34.238Z,100663.50
2022-08-05T05:38:05.757Z,100662.03
2022-08-05T05:40:36.045Z,100667.88
2022-08-05T05:43:03.846Z,100663.75
2022-08-05T05:45:32.467Z,100666.91
2022-08-05T05:48:06.810Z,100675.19
2022-08-05T05:50:35.728Z,100669.56
2022-08-05T05:53:21.894Z,100675.09
2022-08-05T05:55:51.910Z,100667.88
2022-08-05T05:58:32.046Z,100661.78
2022-08-05T06:01:12.297Z,100658.53
2022-08-05T06:04:01.078Z,100658.06
2022-08-05T06:06:28.073Z,100656.84
2022-08-05T06:08:58.630Z,100656.84
2022-08-05T06:11:26.104Z,100664.75
2022-08-05T06:13:57.115Z,100659.16
2022-08-05T06:16:30.284Z,100655.16
2022-08-05T06:19:00.061Z,100657.50
2022-08-05T06:21:36.491Z,100651.13
2022-08-05T06:24:04.258Z,100652.72
2022-08-05T06:26:34.972Z,100657.00
2022-08-05T06:29:06.061Z,100668.59
2022-08-05T06:31:33.686Z,100655.38
2022-08-05T06:34:07.338Z,100659.31
2022-08-05T06:36:57.076Z,100645.31
2022-08-05T06:39:27.373Z,100659.31
2022-08-05T06:41:54.471Z,100644.13
2022-08-05T06:44:23.666Z,100647.69
2022-08-05T06:46:50.954Z,100648.50
2022-08-05T06:49:17.765Z,100650.00
2022-08-05T06:51:46.315Z,100643.19
2022-08-05T06:54:19.048Z,100643.19
2022-08-05T06:56:55.154Z,100638.38
2022-08-05T06:59:38.617Z,100632.34
2022-08-05T07:02:05.347Z,100631.94
2022-08-05T07:04:31.799Z,100625.47
2022-08-05T07:07:02.238Z,100633.00
2022-08-05T07:09:32.365Z,100631.78
2022-08-05T07:12:03.820Z,100633.38
2022-08-05T07:14:32.278Z,100636.13
2022-08-05T07:17:58.595Z,100634.09
2022-08-05T07:22:35.453Z,100625.63
2022-08-05T07:25:22.752Z,100631.56
2022-08-05T07:27:58.123Z,100631.16
2022-08-05T07:30:32.431Z,100631.50
2022-08-05T07:32:59.947Z,100624.28
2022-08-05T07:36:04.135Z,100622.59
2022-08-05T07:38:32.234Z,100629.41
2022-08-05T07:41:17.172Z,100623.38
2022-08-05T07:43:47.407Z,100622.91
2022-08-05T07:46:24.840Z,100624.50
2022-08-05T07:49:04.076Z,100627.31
2022-08-05T07:51:36.610Z,100624.84
2022-08-05T07:54:04.101Z,100629.59
2022-08-05T07:57:00.793Z,100629.59
2022-08-05T07:59:23.275Z,100615.94
2022-08-05T08:02:05.266Z,100613.50
2022-08-05T08:04:37.395Z,100617.09
2022-08-05T08:07:07.174Z,100621.81
2022-08-05T08:09:33.925Z,100619.41
2022-08-05T08:12:09.093Z,100620.63
2022-08-05T08:14:40.910Z,100620.19
2022-08-05T08:17:08.165Z,100626.56
2022-08-05T08:20:21.080Z,100629.72
2022-08-05T08:22:22.123Z,100618.50
2022-08-05T08:24:54.241Z,100612.47
2022-08-05T08:27:39.968Z,100612.84
2022-08-05T08:30:27.649Z,100618.00
2022-08-05T08:33:02.516Z,100616.38
2022-08-05T08:35:40.895Z,100612.69
2022-08-05T08:38:11.843Z,100612.31
2022-08-05T08:40:45.587Z,100618.31
2022-08-05T08:45:16.774Z,100612.69
2022-08-05T08:46:05.188Z,100617.50
2022-08-05T08:48:41.477Z,100623.44
2022-08-05T08:52:01.730Z,100616.63
2022-08-05T08:54:06.024Z,100607.00
2022-08-05T08:56:36.387Z,100602.97
2022-08-05T08:59:19.702Z,100600.16
2022-08-05T09:01:57.282Z,100605.34
2022-08-05T09:04:30.993Z,100592.50
2022-08-05T09:06:58.734Z,100602.88
2022-08-05T09:09:34.580Z,100598.44
2022-08-05T09:12:12.414Z,100596.84
2022-08-05T09:14:56.576Z,100599.22
2022-08-05T09:17:40.924Z,100602.81
2022-08-05T09:20:11.519Z,100595.22
2022-08-05T09:22:38.345Z,100598.00
2022-08-05T09:25:23.915Z,100593.97
2022-08-05T09:28:06.544Z,100594.75
2022-08-05T09:30:33.077Z,100597.13
2022-08-05T09:32:59.446Z,100591.50
2022-08-05T09:35:27.116Z,100581.53
2022-08-05T09:38:11.928Z,100577.88
2022-08-05T09:40:52.625Z,100573.47
2022-08-05T09:43:21.215Z,100575.06
2022-08-05T09:46:06.757Z,100574.25
2022-08-05T09:48:34.060Z,100571.03
2022-08-05T09:51:00.552Z,100569.00
2022-08-05T09:53:55.031Z,100569.38
2022-08-05T09:56:15.035Z,100573.41
2022-08-05T09:58:42.346Z,100569.38
2022-08-05T10:01:13.744Z,100565.75
2022-08-05T10:03:58.665Z,100568.13
2022-08-05T10:06:26.163Z,100563.31
2022-08-05T10:08:56.109Z,100558.50
2022-08-05T10:11:23.211Z,100556.47
2022-08-05T10:13:49.663Z,100553.25
2022-08-05T10:16:23.123Z,100553.25
2022-08-05T10:18:52.396Z,100542.81
2022-08-05T10:21:18.815Z,100528.38
2022-08-05T10:23:59.031Z,100526.81
2022-08-05T10:26:31.666Z,100527.16
2022-08-05T10:28:59.278Z,100519.44
2022-08-05T10:32:52.605Z,100531.22
2022-08-05T10:34:13.987Z,100527.06
2022-08-05T10:36:40.698Z,100527.59
2022-08-05T10:39:11.758Z,100522.13
2022-08-05T10:41:46.757Z,100521.34
2022-08-05T10:44:13.663Z,100510.94
2022-08-05T10:46:40.051Z,100520.94
2022-08-05T10:49:10.171Z,100517.59
2022-08-05T10:51:40.192Z,100512.66
2022-08-05T10:54:28.272Z,100518.22
2022-08-05T10:56:55.333Z,100512.59
2022-08-05T11:00:03.223Z,100509.69
2022-08-05T11:02:08.710Z,100508.00
2022-08-05T11:04:41.260Z,100508.69
2022-08-05T11:07:09.386Z,100500.75
2022-08-05T11:09:45.385Z,100489.53
2022-08-05T11:12:14.277Z,100492.66
2022-08-05T11:15:01.286Z,100493.09
2022-08-05T11:17:58.034Z,100494.59
2022-08-05T11:20:18.205Z,100479.75
2022-08-05T11:22:49.676Z,100484.94
2022-08-05T11:26:05.175Z,100477.41
2022-08-05T11:28:03.781Z,100478.53
2022-08-05T11:30:30.137Z,100487.19
2022-08-05T11:32:56.907Z,100482.25
2022-08-05T11:35:23.230Z,100479.13
2022-08-05T11:38:29.464Z,100480.72
2022-08-05T11:40:39.017Z,100477.13
2022-08-05T11:43:05.413Z,100472.94
2022-08-05T11:46:27.025Z,100467.75
2022-08-05T11:48:19.723Z,100478.00
2022-08-05T11:50:46.127Z,100476.41
2022-08-05T11:53:13.344Z,100471.84
2022-08-05T11:55:41.942Z,100475.44
2022-08-05T11:58:11.973Z,100470.47
2022-08-05T12:00:39.040Z,100472.53
2022-08-05T12:03:07.905Z,100475.09
2022-08-05T12:05:39.667Z,100473.59
2022-08-05T12:08:10.542Z,100464.06
2022-08-05T12:10:38.569Z,100466.53
2022-08-05T12:13:16.920Z,100457.41
2022-08-05T12:15:45.412Z,100460.22
2022-08-05T12:18:16.736Z,100464.59
2022-08-05T12:20:46.107Z,100455.84
2022-08-05T12:23:13.382Z,100454.28
2022-08-05T12:25:40.635Z,100453.81
2022-08-05T12:28:10.552Z,100448.22
2022-08-05T12:30:45.837Z,100444.97
2022-08-05T12:33:27.954Z,100441.72
2022-08-05T12:36:01.068Z,100435.66
2022-08-05T12:38:30.205Z,100438.91
2022-08-05T12:40:58.040Z,100446.44
2022-08-05T12:43:24.533Z,100426.56
2022-08-05T12:45:58.435Z,100435.66
2022-08-05T12:48:32.329Z,100437.66
2022-08-05T12:50:59.403Z,100438.91
2022-08-05T12:53:37.116Z,100440.03
2022-08-05T12:56:05.270Z,100433.97
2022-08-05T12:58:55.693Z,100421.53
2022-08-05T13:02:03.462Z,100423.53
2022-08-05T13:04:21.034Z,100423.09
2022-08-05T13:06:51.903Z,100419.94
2022-08-05T13:09:28.590Z,100411.97
2022-08-05T13:12:02.558Z,100407.13
2022-08-05T13:14:36.093Z,100414.34
2022-08-05T13:17:04.081Z,100414.34
2022-08-05T13:19:40.354Z,100414.00
2022-08-05T13:22:28.275Z,100408.38
2022-08-05T13:25:00.700Z,100403.91
2022-08-05T13:27:37.693Z,100412.66
2022-08-05T13:30:34.544Z,100404.59
2022-08-05T13:32:51.757Z,100396.97
2022-08-05T13:35:22.091Z,100396.63
2022-08-05T13:37:58.538Z,100393.00
2022-08-05T13:40:51.608Z,100401.09
2022-08-05T13:43:22.139Z,100390.78
2022-08-05T13:45:48.792Z,100386.28
2022-08-05T13:49:00.396Z,100381.34
2022-08-05T13:51:04.783Z,100377.66
2022-08-05T13:53:31.274Z,100383.25
2022-08-05T13:56:01.950Z,100377.31
2022-08-05T13:58:30.328Z,100379.78
2022-08-05T14:00:57.491Z,100371.81
2022-08-05T14:03:24.220Z,100370.00
2022-08-05T14:06:24.965Z,100370.38
2022-08-05T14:08:37.152Z,100364.97
2022-08-05T14:11:20.275Z,100370.59
2022-08-05T14:13:49.197Z,100371.38
2022-08-05T14:16:22.400Z,100373.84
2022-08-05T14:18:49.852Z,100374.19
2022-08-05T14:22:06.997Z,100371.50
2022-08-05T14:24:03.634Z,100371.03
2022-08-05T14:26:38.531Z,100365.53
2022-08-05T14:29:16.126Z,100361.41
2022-08-05T14:32:02.186Z,100369.47
2022-08-05T14:34:29.888Z,100369.00
2022-08-05T14:37:02.045Z,100360.16
2022-08-05T14:39:28.579Z,100366.47
2022-08-05T14:42:19.363Z,100363.41
2022-08-05T14:44:42.103Z,100347.38
2022-08-05T14:47:09.402Z,100355.09
2022-08-05T14:49:59.744Z,100359.72
2022-08-05T14:52:50.437Z,100355.78
2022-08-05T14:55:10.594Z,100353.19
2022-08-05T14:57:54.633Z,100358.59
2022-08-05T15:00:25.235Z,100357.22
2022-08-05T15:02:55.837Z,100349.25
2022-08-05T15:05:30.048Z,100355.56
2022-08-05T15:08:10.645Z,100351.94
2022-08-05T15:10:38.854Z,100352.75
2022-08-05T15:13:09.904Z,100361.19
2022-08-05T15:15:55.784Z,100354.03
2022-08-05T15:18:22.852Z,100348.19
2022-08-05T15:20:49.525Z,100340.56
2022-08-05T15:23:16.031Z,100340.09
2022-08-05T15:25:52.362Z,100349.75
2022-08-05T15:28:27.103Z,100347.38
2022-08-05T15:30:53.962Z,100345.94
2022-08-05T15:34:05.291Z,100341.34
2022-08-05T15:36:16.643Z,100339.22
2022-08-05T15:38:44.728Z,100338.41
2022-08-05T15:41:20.792Z,100337.19
2022-08-05T15:43:50.829Z,100332.69
2022-08-05T15:46:19.237Z,100326.84
2022-08-05T15:48:53.062Z,100329.88
2022-08-05T15:52:13.080Z,100331.56
2022-08-05T15:54:15.175Z,100325.06
2022-08-05T15:56:43.651Z,100323.34
2022-08-05T15:59:10.298Z,100318.50
2022-08-05T16:01:52.624Z,100320.66
2022-08-05T16:04:20.590Z,100317.63
2022-08-05T16:06:53.169Z,100322.56
2022-08-05T16:09:22.105Z,100322.91
2022-08-05T16:11:52.760Z,100320.53
2022-08-05T16:14:20.428Z,100320.88
2022-08-05T16:16:49.534Z,100318.41
2022-08-05T16:19:25.409Z,100317.50
2022-08-05T16:22:04.082Z,100322.91
2022-08-05T16:24:39.529Z,100323.25
2022-08-05T16:27:09.357Z,100316.50
2022-08-05T16:29:37.626Z,100314.81
2022-08-05T16:32:04.313Z,100311.44
2022-08-05T16:34:31.111Z,100309.06
2022-08-05T16:36:57.529Z,100308.97
2022-08-05T16:40:04.851Z,100306.47
2022-08-05T16:42:17.535Z,100297.72
2022-08-05T16:44:45.933Z,100296.06
2022-08-05T16:47:28.733Z,100302.78
2022-08-05T16:50:03.739Z,100305.25
2022-08-05T16:52:32.721Z,100306.16
2022-08-05T16:55:00.182Z,100306.47
2022-08-05T16:57:39.985Z,100302.56
2022-08-05T17:00:14.078Z,100301.34
2022-08-05T17:02:40.671Z,100303.66
2022-08-05T17:05:07.944Z,100301.78
2022-08-05T17:07:43.783Z,100296.38
2022-08-05T17:10:20.955Z,100295.25
2022-08-05T17:12:53.858Z,100301.53
2022-08-05T17:15:20.879Z,100299.97
2022-08-05T17:17:55.115Z,100297.72
2022-08-05T17:20:21.868Z,100300.28
2022-08-05T17:22:55.462Z,100293.56
2022-08-05T17:25:39.547Z,100302.56
2022-08-05T17:28:07.793Z,100303.56
2022-08-05T17:30:50.710Z,100300.41
2022-08-05T17:33:19.981Z,100300.41
2022-08-05T17:36:08.139Z,100305.25
2022-08-05T17:38:33.859Z,100310.75
2022-08-05T17:41:02.340Z,100317.16
2022-08-05T17:43:47.265Z,100314.13
2022-08-05T17:46:16.904Z,100318.06
2022-08-05T17:48:47.555Z,100312.78
2022-08-05T17:51:21.515Z,100313.13
2022-08-05T17:53:50.889Z,100319.63
2022-08-05T17:56:22.783Z,100312.78
2022-08-05T17:58:49.435Z,100312.66
2022-08-05T18:01:16.712Z,100307.16
2022-08-05T18:03:59.803Z,100314.34
2022-08-05T18:06:31.647Z,100322.66
2022-08-05T18:08:59.697Z,100319.84
2022-08-05T18:11:33.074Z,100318.59
2022-08-05T18:14:00.145Z,100319.50
2022-08-05T18:16:27.405Z,100320.75
2022-08-05T18:18:54.700Z,100317.03
2022-08-05T18:21:26.342Z,100315.03
2022-08-05T18:23:55.402Z,100317.84
2022-08-05T18:26:27.585Z,100323.13
2022-08-05T18:28:56.647Z,100322.66
2022-08-05T18:31:23.887Z,100325.13
2022-08-05T18:33:51.626Z,100321.22
2022-08-05T18:36:19.204Z,100315.91
2022-08-05T18:38:45.926Z,100319.50
2022-08-05T18:41:55.403Z,100322.66
2022-08-05T18:44:05.775Z,100321.66
2022-08-05T18:46:34.234Z,100317.16
2022-08-05T18:49:01.596Z,100315.91
2022-08-05T18:52:03.069Z,100320.97
2022-08-05T18:54:17.761Z,100306.91
2022-08-05T18:56:51.208Z,100312.53
2022-08-05T18:59:43.994Z,100324.69
2022-08-05T19:02:11.487Z,100328.25
2022-08-05T19:05:02.932Z,100326.25
2022-08-05T19:07:46.035Z,100324.22
2022-08-05T19:10:13.834Z,100320.75
2022-08-05T19:12:41.153Z,100321.88
2022-08-05T19:15:45.071Z,100330.41
2022-08-05T19:18:08.373Z,100333.88
2022-08-05T19:20:36.325Z,100324.34
2022-08-05T19:23:07.718Z,100328.75
2022-08-05T19:25:43.331Z,100322.44
2022-08-05T19:28:10.967Z,100330.41
2022-08-05T19:30:37.428Z,100328.38
2022-08-05T19:33:07.092Z,100330.88
2022-08-05T19:35:55.982Z,100328.50
2022-08-05T19:38:26.508Z,100328.38
2022-08-05T19:40:53.285Z,100328.84
2022-08-05T19:43:31.195Z,100337.38
2022-08-05T19:46:16.679Z,100332.13
2022-08-05T19:48:54.703Z,100331.75
2022-08-05T19:52:05.555Z,100330.09
2022-08-05T19:54:21.838Z,100326.38
2022-08-05T19:56:54.114Z,100324.78
2022-08-05T20:00:00.473Z,100327.59
2022-08-05T20:02:08.197Z,100334.47
2022-08-05T20:04:34.675Z,100341.66
2022-08-05T20:07:01.158Z,100338.72
2022-08-05T20:09:28.446Z,100336.03
2022-08-05T20:11:55.840Z,100336.47
2022-08-05T20:14:27.099Z,100333.66
2022-08-05T20:16:53.809Z,100328.06
2022-08-05T20:19:22.038Z,100327.28
2022-08-05T20:21:49.538Z,100325.03
2022-08-05T20:24:16.344Z,100325.47
2022-08-05T20:26:42.856Z,100318.53
2022-08-05T20:29:26.372Z,100327.59
2022-08-05T20:31:57.948Z,100323.34
2022-08-05T20:34:24.897Z,100319.88
2022-08-05T20:36:51.391Z,100315.38
2022-08-05T20:39:18.841Z,100313.91
2022-08-05T20:41:46.575Z,100324.69
2022-08-05T20:44:18.694Z,100327.97
2022-08-05T20:46:55.853Z,100321.91
2022-08-05T20:49:24.470Z,100333.00
2022-08-05T20:51:54.020Z,100333.78
2022-08-05T20:54:21.583Z,100334.94
2022-08-05T20:56:49.074Z,100336.59
2022-08-05T20:59:19.306Z,100333.69
2022-08-05T21:01:54.635Z,100332.06
2022-08-05T21:04:27.243Z,100336.47
2022-08-05T21:06:53.839Z,100327.66
2022-08-05T21:09:21.168Z,100336.88
2022-08-05T21:12:09.824Z,100330.03
2022-08-05T21:14:35.561Z,100327.09
2022-08-05T21:17:02.120Z,100339.50
2022-08-05T21:19:47.582Z,100338.22
2022-08-05T21:22:23.167Z,100336.06
2022-08-05T21:24:51.807Z,100335.00
2022-08-05T21:27:18.706Z,100329.09
2022-08-05T21:29:51.997Z,100337.78
2022-08-05T21:32:21.428Z,100328.56
2022-08-05T21:35:06.909Z,100332.56
2022-08-05T21:37:41.239Z,100334.19
2022-08-05T21:40:13.627Z,100334.91
2022-08-05T21:42:45.164Z,100332.81
2022-08-05T21:45:13.145Z,100328.78
2022-08-05T21:47:56.976Z,100327.44
2022-08-05T21:50:25.292Z,100342.97
2022-08-05T21:52:51.796Z,100340.94
2022-08-05T21:55:18.285Z,100334.53
2022-08-05T21:58:05.677Z,100348.16
2022-08-05T22:00:33.202Z,100341.63
2022-08-05T22:03:01.245Z,100341.16
2022-08-05T22:05:27.778Z,100337.59
2022-08-05T22:08:22.301Z,100338.03
2022-08-05T22:10:51.533Z,100342.53
2022-08-05T22:14:19.431Z,100340.44
2022-08-05T22:16:20.422Z,100345.59
2022-08-05T22:18:54.518Z,100334.34
2022-08-05T22:21:25.299Z,100345.81
2022-08-05T22:24:01.086Z,100338.63
2022-08-05T22:26:31.094Z,100339.63
2022-08-05T22:28:58.098Z,100341.88
2022-08-05T22:31:29.934Z,100345.16
2022-08-05T22:34:01.630Z,100339.97
2022-08-05T22:36:29.694Z,100344.16
2022-08-05T22:38:57.179Z,100333.25
2022-08-05T22:42:09.472Z,100332.44
2022-08-05T22:44:19.292Z,100336.28
2022-08-05T22:46:47.699Z,100339.75
2022-08-05T22:50:18.446Z,100334.47
2022-08-05T22:52:07.313Z,100331.44
2022-08-05T22:54:39.987Z,100334.38
2022-08-05T22:57:16.268Z,100329.00
2022-08-05T22:59:53.608Z,100320.22
2022-08-05T23:02:29.633Z,100323.03
2022-08-05T23:04:57.540Z,100324.50
2022-08-05T23:07:24.037Z,100328.97
2022-08-05T23:10:01.647Z,100328.59
2022-08-05T23:12:29.039Z,100332.59
2022-08-05T23:14:59.548Z,100326.56
2022-08-05T23:17:34.158Z,100324.56
2022-08-05T23:20:02.698Z,100317.38
2022-08-05T23:22:30.978Z,100325.47
2022-08-05T23:24:57.561Z,100321.56
2022-08-05T23:27:28.962Z,100317.72
2022-08-05T23:29:58.960Z,100320.19
2022-08-05T23:32:26.953Z,100319.75
2022-08-05T23:34:53.753Z,100327.72
2022-08-05T23:37:21.112Z,100327.25
2022-08-05T23:39:53.765Z,100329.84
2022-08-05T23:42:29.091Z,100337.13
2022-08-05T23:44:57.322Z,100331.53
2022-08-05T23:47:25.323Z,100333.53
2022-08-05T23:49:52.146Z,100329.84
2022-08-05T23:52:25.083Z,100330.06
2022-08-05T23:54:52.973Z,100318.72
2022-08-05T23:57:20.323Z,100320.41
